Time;durP1;ratioP1;P1;durP2;ratioP2;P2;SDS_P1;SDS_P2;PMS_P1;PMS_P2;Temp;Humidity;BMP_temperature;BMP_pressure;BME280_temperature;BME280_humidity;BME280_pressure;Samples;Min_cycle;Max_cycle;Signal;HPM_P1;HPM_P2
2023/03/20 00:01:34;;;;;;;0.10;0.10;;;9.00;99.90;230.40;231737.00;;;;5041990;28;20239;-73
2023/03/20 00:04:03;;;;;;;0.10;0.10;;;9.00;99.90;230.40;231737.00;;;;5040930;28;20217;-73
2023/03/20 00:06:32;;;;;;;0.10;0.10;;;9.00;99.90;230.40;231737.00;;;;5059887;28;20285;-73
2023/03/20 00:09:01;;;;;;;0.10;0.10;;;9.00;99.90;230.40;231737.00;;;;5042377;28;20199;-72
2023/03/20 00:11:39;;;;;;;0.10;0.10;;;9.10;99.90;230.40;231737.00;;;;5034207;28;20218;-73
2023/03/20 00:14:13;;;;;;;0.10;0.10;;;9.10;99.90;230.40;231737.00;;;;5046456;28;20217;-73
2023/03/20 00:16:44;;;;;;;0.10;0.10;;;9.10;99.90;230.40;231737.00;;;;5055514;28;20240;-73
2023/03/20 00:19:17;;;;;;;0.10;0.10;;;9.20;99.90;230.40;231737.00;;;;5053188;28;20202;-74
2023/03/20 00:21:46;;;;;;;0.10;0.10;;;9.20;99.90;230.40;231737.00;;;;5047467;28;20214;-73
2023/03/20 00:24:16;;;;;;;0.10;0.10;;;9.20;99.90;230.40;231737.00;;;;5054349;28;20602;-74
2023/03/20 00:26:46;;;;;;;0.10;0.10;;;9.20;99.90;230.40;231737.00;;;;5043476;28;20211;-74
2023/03/20 00:29:22;;;;;;;0.10;0.10;;;9.20;99.90;230.40;231737.00;;;;5049637;28;20193;-74
2023/03/20 00:31:50;;;;;;;0.10;0.10;;;9.20;99.90;230.40;231737.00;;;;5034765;28;20214;-74
2023/03/20 00:34:24;;;;;;;0.10;0.10;;;9.20;99.90;230.40;231737.00;;;;5034935;28;20638;-74
2023/03/20 00:36:53;;;;;;;0.10;0.10;;;9.10;99.90;230.40;231737.00;;;;5049591;28;20218;-74
2023/03/20 00:39:22;;;;;;;0.10;0.10;;;9.20;99.90;230.40;231737.00;;;;5052499;28;20569;-74
2023/03/20 00:41:54;;;;;;;0.10;0.10;;;9.20;99.90;230.40;231737.00;;;;5020567;28;20222;-75
2023/03/20 00:44:27;;;;;;;0.10;0.10;;;9.30;99.90;230.40;231737.00;;;;5045959;28;20207;-75
2023/03/20 00:46:59;;;;;;;0.10;0.10;;;9.20;99.90;230.40;231737.00;;;;5051689;28;20214;-75
2023/03/20 00:49:31;;;;;;;0.10;0.10;;;9.20;99.90;230.40;231737.00;;;;5033065;28;20619;-76
2023/03/20 00:52:01;;;;;;;0.10;0.10;;;9.30;99.90;230.40;231737.00;;;;5054303;28;20705;-74
2023/03/20 00:54:30;;;;;;;0.10;0.10;;;9.20;99.90;230.40;231737.00;;;;5043805;28;20800;-75
2023/03/20 00:57:05;;;;;;;0.10;0.10;;;9.20;99.90;230.40;231737.00;;;;5037730;28;20602;-72
2023/03/20 00:59:39;;;;;;;0.10;0.10;;;9.20;99.90;230.40;231737.00;;;;5033882;28;20194;-73
2023/03/20 01:02:11;;;;;;;0.10;0.10;;;9.20;99.90;230.40;231737.00;;;;5047598;28;20607;-73
2023/03/20 01:04:42;;;;;;;0.10;0.10;;;9.20;99.90;230.40;231737.00;;;;5057152;28;20212;-75
2023/03/20 01:07:15;;;;;;;0.10;0.10;;;9.20;99.90;230.40;231737.00;;;;5035628;28;20225;-74
2023/03/20 01:09:43;;;;;;;0.10;0.10;;;9.20;99.90;230.40;231737.00;;;;5048040;28;20563;-75
2023/03/20 01:12:13;;;;;;;0.10;0.10;;;9.30;99.90;230.40;231737.00;;;;5047911;28;20218;-74
2023/03/20 01:14:41;;;;;;;0.10;0.10;;;9.30;99.90;230.40;231737.00;;;;5046016;28;20227;-74
2023/03/20 01:17:18;;;;;;;0.10;0.10;;;9.20;99.90;230.40;231737.00;;;;5048013;28;20194;-74
2023/03/20 01:19:48;;;;;;;0.10;0.10;;;9.20;99.90;230.40;231737.00;;;;5050159;28;20525;-75
2023/03/20 01:22:17;;;;;;;0.10;0.10;;;9.20;99.90;230.40;231737.00;;;;5064708;28;20210;-75
2023/03/20 01:24:46;;;;;;;0.10;0.10;;;9.30;99.90;230.40;231737.00;;;;5060248;28;20195;-74
2023/03/20 01:27:16;;;;;;;0.10;0.10;;;9.20;99.90;230.40;231737.00;;;;5048831;28;20190;-74
2023/03/20 01:29:45;;;;;;;0.10;0.10;;;9.20;99.90;230.40;231737.00;;;;5045984;28;20203;-73
2023/03/20 01:32:19;;;;;;;0.10;0.10;;;9.20;99.90;230.40;231737.00;;;;5032495;28;20316;-74
2023/03/20 01:34:53;;;;;;;0.10;0.10;;;9.10;99.90;230.40;231737.00;;;;5042268;28;20245;-73
2023/03/20 01:37:26;;;;;;;0.10;0.10;;;9.10;99.90;230.40;231737.00;;;;5028359;28;20190;-74
2023/03/20 01:39:57;;;;;;;0.10;0.10;;;9.10;99.90;230.40;231737.00;;;;5032391;28;20201;-75
2023/03/20 01:42:26;;;;;;;0.10;0.10;;;9.10;99.90;230.40;231737.00;;;;5026829;28;20265;-73
2023/03/20 01:44:54;;;;;;;0.10;0.10;;;9.00;99.90;230.40;231737.00;;;;5035792;28;20198;-75
2023/03/20 01:47:26;;;;;;;0.10;0.10;;;9.00;99.90;230.40;231737.00;;;;5047785;28;20190;-73
2023/03/20 01:50:23;;;;;;;0.10;0.10;;;9.00;99.90;230.40;231737.00;;;;5037814;28;20643;-73
2023/03/20 01:53:04;;;;;;;0.03;0.03;;;8.90;99.90;230.40;231737.00;;;;5025576;28;20203;-74
2023/03/20 01:55:36;;;;;;;0.10;0.10;;;8.90;99.90;230.40;231737.00;;;;5045772;28;20229;-73
2023/03/20 01:58:13;;;;;;;0.10;0.10;;;8.90;99.90;230.40;231737.00;;;;5049132;28;20206;-74
2023/03/20 02:00:41;;;;;;;0.10;0.10;;;8.80;99.90;230.40;231737.00;;;;5029220;28;20596;-73
2023/03/20 02:03:16;;;;;;;0.10;0.10;;;8.80;99.90;230.40;231737.00;;;;5062879;28;20198;-74
2023/03/20 02:06:15;;;;;;;0.00;0.00;;;8.80;99.90;230.40;231737.00;;;;5035792;28;20228;-75
2023/03/20 02:09:03;;;;;;;0.10;0.10;;;8.70;99.90;230.40;231737.00;;;;5047339;28;20285;-74
2023/03/20 02:11:39;;;;;;;0.10;0.10;;;8.70;99.90;230.40;231737.00;;;;5027074;28;20715;-74
2023/03/20 02:14:09;;;;;;;0.10;0.10;;;8.70;99.90;230.40;231737.00;;;;5029898;28;20214;-74
2023/03/20 02:16:50;;;;;;;0.10;0.10;;;8.70;99.90;230.40;231737.00;;;;5028696;28;20230;-74
2023/03/20 02:19:33;;;;;;;0.10;0.10;;;8.60;99.90;230.40;231737.00;;;;5041988;28;20192;-73
2023/03/20 02:22:38;;;;;;;0.10;0.10;;;8.60;99.90;230.40;231737.00;;;;5037675;28;20225;-74
2023/03/20 02:25:52;;;;;;;0.10;0.10;;;8.60;99.90;230.40;231737.00;;;;5040975;28;20198;-76
2023/03/20 02:29:35;;;;;;;0.10;0.10;;;8.50;99.90;230.40;231737.00;;;;5039898;28;20256;-75
2023/03/20 02:32:51;;;;;;;0.05;0.05;;;8.50;99.90;230.40;231737.00;;;;5042550;28;20222;-77
2023/03/20 02:36:05;;;;;;;0.10;0.10;;;8.40;99.90;230.40;231737.00;;;;5037819;28;20224;-75
2023/03/20 02:39:29;;;;;;;0.10;0.10;;;8.40;99.90;230.40;231737.00;;;;5025061;28;20243;-75
2023/03/20 02:42:08;;;;;;;0.10;0.10;;;8.30;99.90;230.40;231737.00;;;;5045653;28;20598;-74
2023/03/20 02:44:49;;;;;;;0.10;0.10;;;8.30;99.90;230.40;231737.00;;;;5015746;28;20234;-74
2023/03/20 02:47:26;;;;;;;0.10;0.10;;;8.30;99.90;230.40;231737.00;;;;5035688;28;20187;-74
2023/03/20 02:50:13;;;;;;;0.10;0.10;;;8.30;99.90;230.40;231737.00;;;;5041779;28;20198;-74
2023/03/20 02:52:51;;;;;;;0.10;0.10;;;8.20;99.90;230.40;231737.00;;;;5038360;28;20199;-74
2023/03/20 02:55:33;;;;;;;0.10;0.10;;;8.20;99.90;230.40;231737.00;;;;5029569;28;20614;-75
2023/03/20 02:58:15;;;;;;;0.10;0.10;;;8.30;99.90;230.40;231737.00;;;;5038045;28;20261;-75
2023/03/20 03:00:54;;;;;;;0.10;0.10;;;8.30;99.90;230.40;231737.00;;;;5039248;28;20641;-74
2023/03/20 03:03:31;;;;;;;0.10;0.10;;;8.30;99.90;230.40;231737.00;;;;5029776;28;20195;-75
2023/03/20 03:06:07;;;;;;;0.10;0.10;;;8.30;99.90;230.40;231737.00;;;;5033389;28;20198;-76
2023/03/20 03:08:42;;;;;;;0.10;0.10;;;8.30;99.90;230.40;231737.00;;;;5040761;28;20225;-74
2023/03/20 03:11:11;;;;;;;0.10;0.10;;;8.40;99.90;230.40;231737.00;;;;5041032;28;20587;-76
2023/03/20 03:13:48;;;;;;;0.10;0.10;;;8.30;99.90;230.40;231737.00;;;;5039272;28;20287;-73
2023/03/20 03:16:23;;;;;;;0.10;0.10;;;8.30;99.90;230.40;231737.00;;;;5053736;28;20185;-75
2023/03/20 03:19:03;;;;;;;0.10;0.10;;;8.30;99.90;230.40;231737.00;;;;5025031;28;20206;-74
2023/03/20 03:21:35;;;;;;;0.10;0.10;;;8.30;99.90;230.40;231737.00;;;;5035200;28;20259;-74
2023/03/20 03:24:05;;;;;;;0.10;0.10;;;8.40;99.90;230.40;231737.00;;;;5047876;28;20206;-74
2023/03/20 03:26:39;;;;;;;0.10;0.10;;;8.40;99.90;230.40;231737.00;;;;5039068;28;20198;-75
2023/03/20 03:29:15;;;;;;;0.10;0.10;;;8.30;99.90;230.40;231737.00;;;;5039239;28;20611;-75
2023/03/20 03:31:45;;;;;;;0.10;0.10;;;8.20;99.90;230.40;231737.00;;;;5028892;28;20233;-75
2023/03/20 03:34:18;;;;;;;0.10;0.10;;;8.20;99.90;230.40;231737.00;;;;5039045;28;20264;-72
2023/03/20 03:36:54;;;;;;;0.10;0.10;;;8.10;99.90;230.40;231737.00;;;;5054652;28;20187;-72
2023/03/20 03:39:36;;;;;;;0.10;0.10;;;8.00;99.90;230.40;231737.00;;;;5045161;28;20202;-73
2023/03/20 03:42:17;;;;;;;0.10;0.10;;;8.10;99.90;230.40;231737.00;;;;5031519;28;20218;-72
2023/03/20 03:44:56;;;;;;;0.10;0.10;;;8.10;99.90;230.40;231737.00;;;;5056470;28;20206;-72
2023/03/20 03:47:34;;;;;;;0.10;0.10;;;8.00;99.90;230.40;231737.00;;;;5023828;28;20202;-73
2023/03/20 03:50:10;;;;;;;0.10;0.10;;;8.00;99.90;230.40;231737.00;;;;5034153;28;20209;-72
2023/03/20 03:52:41;;;;;;;0.10;0.10;;;8.00;99.90;230.40;231737.00;;;;5052913;28;20678;-72
2023/03/20 03:55:16;;;;;;;0.10;0.10;;;8.10;99.90;230.40;231737.00;;;;5026283;28;20321;-73
2023/03/20 03:58:06;;;;;;;0.10;0.10;;;8.00;99.90;230.40;231737.00;;;;5049931;28;20207;-73
2023/03/20 04:00:36;;;;;;;0.10;0.10;;;8.10;99.90;230.40;231737.00;;;;5039235;28;20284;-72
2023/03/20 04:03:08;;;;;;;0.10;0.10;;;8.10;99.90;230.40;231737.00;;;;5036318;28;20218;-76
2023/03/20 04:05:40;;;;;;;0.10;0.10;;;8.10;99.90;230.40;231737.00;;;;5049448;28;20198;-76
2023/03/20 04:08:08;;;;;;;0.10;0.10;;;8.10;99.90;230.40;231737.00;;;;5045230;28;20685;-75
2023/03/20 04:10:36;;;;;;;0.10;0.10;;;8.10;99.90;230.40;231737.00;;;;5033789;28;20222;-71
2023/03/20 04:13:09;;;;;;;0.10;0.10;;;8.10;99.90;230.40;231737.00;;;;5037202;28;20199;-72
2023/03/20 04:15:38;;;;;;;0.10;0.10;;;8.20;99.90;230.40;231737.00;;;;5037015;28;20310;-73
2023/03/20 04:18:08;;;;;;;0.10;0.10;;;8.20;99.90;230.40;231737.00;;;;5038411;28;20302;-73
2023/03/20 04:20:40;;;;;;;0.10;0.10;;;8.20;99.90;230.40;231737.00;;;;5035675;28;20222;-72
2023/03/20 04:23:10;;;;;;;0.10;0.10;;;8.20;99.90;230.40;231737.00;;;;5033353;28;20199;-72
2023/03/20 04:25:38;;;;;;;0.10;0.10;;;8.20;99.90;230.40;231737.00;;;;5037278;28;20206;-75
2023/03/20 04:28:06;;;;;;;0.10;0.10;;;8.20;99.90;230.40;231737.00;;;;5055982;28;20203;-74
2023/03/20 04:30:47;;;;;;;0.10;0.10;;;8.30;99.90;230.40;231737.00;;;;5025696;28;20226;-75
2023/03/20 04:33:27;;;;;;;0.03;0.03;;;8.30;99.90;230.40;231737.00;;;;5055506;28;20190;-73
2023/03/20 04:36:13;;;;;;;0.10;0.10;;;8.30;99.90;230.40;231737.00;;;;5060525;28;20228;-73
2023/03/20 04:38:42;;;;;;;0.10;0.10;;;8.40;99.90;230.40;231737.00;;;;5038416;28;20693;-72
2023/03/20 04:41:10;;;;;;;0.10;0.10;;;8.40;99.90;230.40;231737.00;;;;5027611;28;20218;-72
2023/03/20 04:43:39;;;;;;;0.10;0.10;;;8.30;99.90;230.40;231737.00;;;;5029836;28;20244;-72
2023/03/20 04:46:09;;;;;;;0.10;0.10;;;8.30;99.90;230.40;231737.00;;;;5027917;28;20694;-72
2023/03/20 04:48:38;;;;;;;0.10;0.10;;;8.30;99.90;230.40;231737.00;;;;5032624;28;20210;-72
2023/03/20 04:51:07;;;;;;;0.10;0.10;;;8.20;99.90;230.40;231737.00;;;;5056483;28;20302;-75
2023/03/20 04:53:48;;;;;;;0.10;0.10;;;8.20;99.90;230.40;231737.00;;;;5038785;28;20202;-72
2023/03/20 04:56:16;;;;;;;0.10;0.10;;;8.20;99.90;230.40;231737.00;;;;5042013;28;20786;-72
2023/03/20 04:58:45;;;;;;;0.10;0.10;;;8.20;99.90;230.40;231737.00;;;;5030553;28;20208;-73
2023/03/20 05:01:15;;;;;;;0.10;0.10;;;8.30;99.90;230.40;231737.00;;;;5048882;28;20228;-72
2023/03/20 05:03:43;;;;;;;0.10;0.10;;;8.40;99.90;230.40;231737.00;;;;5032877;28;20556;-72
2023/03/20 05:06:11;;;;;;;0.10;0.10;;;8.40;99.90;230.40;231737.00;;;;5024787;28;20297;-73
2023/03/20 05:08:42;;;;;;;0.10;0.10;;;8.30;99.90;230.40;231737.00;;;;5034943;28;20240;-72
2023/03/20 05:11:10;;;;;;;0.10;0.10;;;8.40;99.90;230.40;231737.00;;;;5031102;28;20250;-72
2023/03/20 05:14:05;;;;;;;0.10;0.10;;;8.40;99.90;230.40;231737.00;;;;5053789;28;20545;-72
2023/03/20 05:16:52;;;;;;;0.10;0.10;;;8.30;99.90;230.40;231737.00;;;;5031349;28;20317;-72
2023/03/20 05:19:32;;;;;;;0.10;0.10;;;8.20;99.90;230.40;231737.00;;;;5051580;28;20205;-72
2023/03/20 05:22:12;;;;;;;0.10;0.10;;;8.20;99.90;230.40;231737.00;;;;5033432;28;20221;-74
2023/03/20 05:24:54;;;;;;;0.10;0.10;;;8.20;99.90;230.40;231737.00;;;;5041955;28;20328;-74
2023/03/20 05:27:31;;;;;;;0.10;0.10;;;8.20;99.90;230.40;231737.00;;;;5044118;28;20204;-72
2023/03/20 05:30:10;;;;;;;0.10;0.10;;;8.30;99.90;230.40;231737.00;;;;5048686;28;20194;-72
2023/03/20 05:33:02;;;;;;;0.10;0.10;;;8.30;99.90;230.40;231737.00;;;;5030410;28;20216;-72
2023/03/20 05:35:41;;;;;;;0.10;0.10;;;8.30;99.90;230.40;231737.00;;;;5037685;28;20222;-72
2023/03/20 05:38:38;;;;;;;0.10;0.10;;;8.30;99.90;230.40;231737.00;;;;5044611;28;20241;-72
2023/03/20 05:41:20;;;;;;;0.10;0.10;;;8.30;99.90;230.40;231737.00;;;;5033537;28;20560;-71
2023/03/20 05:44:05;;;;;;;0.10;0.10;;;8.30;99.90;230.40;231737.00;;;;5040582;28;20202;-73
2023/03/20 05:46:46;;;;;;;0.10;0.10;;;8.40;99.90;230.40;231737.00;;;;5037384;28;20245;-73
2023/03/20 05:49:22;;;;;;;0.10;0.10;;;8.40;99.90;230.40;231737.00;;;;5043905;28;20244;-72
2023/03/20 05:52:10;;;;;;;0.10;0.10;;;8.40;99.90;230.40;231737.00;;;;5056699;28;20776;-72
2023/03/20 05:55:02;;;;;;;0.10;0.10;;;8.40;99.90;230.40;231737.00;;;;5045737;28;20202;-73
2023/03/20 05:57:39;;;;;;;0.10;0.10;;;8.50;99.90;230.40;231737.00;;;;5041303;28;20988;-72
2023/03/20 06:00:26;;;;;;;0.10;0.10;;;8.50;99.90;230.40;231737.00;;;;5040027;28;20206;-71
2023/03/20 06:03:13;;;;;;;0.10;0.10;;;8.60;99.90;230.40;231737.00;;;;5049117;28;20217;-72
2023/03/20 06:06:09;;;;;;;0.10;0.10;;;8.60;99.90;230.40;231737.00;;;;5035913;28;20236;-73
2023/03/20 06:08:37;;;;;;;0.10;0.10;;;8.70;99.90;230.40;231737.00;;;;5024262;28;20203;-73
2023/03/20 06:11:07;;;;;;;0.10;0.10;;;8.80;99.90;230.40;231737.00;;;;5025271;28;20222;-73
2023/03/20 06:13:41;;;;;;;0.10;0.10;;;8.90;99.90;230.40;231737.00;;;;5030669;28;20240;-74
2023/03/20 06:16:10;;;;;;;0.10;0.10;;;8.90;99.90;230.40;231737.00;;;;5039953;28;20759;-73
2023/03/20 06:18:38;;;;;;;0.10;0.10;;;8.90;99.90;230.40;231737.00;;;;5042819;28;20210;-74
2023/03/20 06:21:12;;;;;;;0.10;0.10;;;9.00;99.90;230.40;231737.00;;;;5021694;28;20215;-74
2023/03/20 06:23:41;;;;;;;0.10;0.10;;;9.00;99.90;230.40;231737.00;;;;5034726;28;20500;-73
2023/03/20 06:26:09;;;;;;;0.10;0.10;;;9.00;99.90;230.40;231737.00;;;;5044329;28;20206;-74
2023/03/20 06:28:50;;;;;;;0.10;0.10;;;9.10;99.90;230.40;231737.00;;;;5050707;28;20737;-74
2023/03/20 06:31:19;;;;;;;0.10;0.10;;;9.10;99.90;230.40;231737.00;;;;5048226;28;20213;-74
2023/03/20 06:33:47;;;;;;;0.10;0.10;;;9.10;99.90;230.40;231737.00;;;;5031162;28;20205;-74
2023/03/20 06:36:17;;;;;;;0.10;0.10;;;9.20;99.90;230.40;231737.00;;;;5032237;28;20217;-74
2023/03/20 06:38:46;;;;;;;0.10;0.10;;;9.10;99.90;230.40;231737.00;;;;5044057;28;20685;-74
2023/03/20 06:41:16;;;;;;;0.10;0.10;;;9.20;99.90;230.40;231737.00;;;;5046190;28;20309;-75
2023/03/20 06:44:04;;;;;;;0.10;0.10;;;9.10;99.90;230.40;231737.00;;;;5043844;28;20226;-75
2023/03/20 06:46:52;;;;;;;0.10;0.10;;;9.10;99.90;230.40;231737.00;;;;5055186;28;20245;-74
2023/03/20 06:49:20;;;;;;;0.10;0.10;;;9.10;99.90;230.40;231737.00;;;;5044051;28;20204;-73
2023/03/20 06:51:49;;;;;;;0.10;0.10;;;9.10;99.90;230.40;231737.00;;;;5048515;28;20221;-74
2023/03/20 06:54:24;;;;;;;0.10;0.10;;;9.10;99.90;230.40;231737.00;;;;5049200;28;20203;-75
2023/03/20 06:56:52;;;;;;;0.10;0.10;;;9.20;99.90;230.40;231737.00;;;;5037442;28;20231;-74
2023/03/20 06:59:21;;;;;;;0.10;0.10;;;9.20;99.90;230.40;231737.00;;;;5044060;28;20202;-74
2023/03/20 07:01:57;;;;;;;0.10;0.10;;;9.20;99.90;230.40;231737.00;;;;5036952;28;20226;-74
2023/03/20 07:04:26;;;;;;;0.00;0.00;;;9.20;99.90;230.40;231737.00;;;;5031807;28;20194;-74
2023/03/20 07:06:58;;;;;;;0.10;0.10;;;9.30;99.90;230.40;231737.00;;;;5043324;28;20596;-74
2023/03/20 07:09:27;;;;;;;0.10;0.10;;;9.40;99.90;230.40;231737.00;;;;5059845;28;20240;-75
2023/03/20 07:11:56;;;;;;;0.10;0.10;;;9.40;99.90;230.40;231737.00;;;;5032759;28;20712;-74
2023/03/20 07:14:24;;;;;;;0.10;0.10;;;9.40;99.90;230.40;231737.00;;;;5044772;28;20205;-75
2023/03/20 07:16:59;;;;;;;0.10;0.10;;;9.40;99.90;230.40;231737.00;;;;5044618;28;20221;-74
2023/03/20 07:19:27;;;;;;;0.10;0.10;;;9.40;99.90;230.40;231737.00;;;;5048308;28;20203;-75
2023/03/20 07:22:04;;;;;;;0.10;0.10;;;9.50;99.90;230.40;231737.00;;;;5045303;28;20674;-75
2023/03/20 07:24:38;;;;;;;0.10;0.10;;;9.50;99.90;230.40;231737.00;;;;5048123;28;20292;-74
2023/03/20 07:27:06;;;;;;;0.10;0.10;;;9.60;99.90;230.40;231737.00;;;;5056371;28;20203;-74
2023/03/20 07:29:35;;;;;;;0.10;0.10;;;9.50;99.90;230.40;231737.00;;;;5046107;28;20206;-74
2023/03/20 07:32:10;;;;;;;0.10;0.10;;;9.60;99.90;230.40;231737.00;;;;5036147;28;20297;-75
2023/03/20 07:34:43;;;;;;;0.10;0.10;;;9.60;99.90;230.40;231737.00;;;;5040744;28;20202;-74
2023/03/20 07:37:13;;;;;;;0.10;0.10;;;9.70;99.90;230.40;231737.00;;;;5041437;28;20249;-74
2023/03/20 07:39:46;;;;;;;0.10;0.10;;;9.70;99.90;230.40;231737.00;;;;5038371;28;20240;-74
2023/03/20 07:42:27;;;;;;;0.10;0.10;;;9.80;99.90;230.40;231737.00;;;;5045646;28;20244;-74
2023/03/20 07:45:08;;;;;;;0.10;0.10;;;9.90;99.90;230.40;231737.00;;;;5037448;28;20296;-74
2023/03/20 07:47:36;;;;;;;0.10;0.10;;;9.90;99.90;230.40;231737.00;;;;5054990;28;20207;-74
2023/03/20 07:50:06;;;;;;;0.10;0.10;;;10.00;99.90;230.40;231737.00;;;;5044857;28;20288;-74
2023/03/20 07:52:37;;;;;;;0.10;0.10;;;10.10;99.90;230.40;231737.00;;;;5036973;28;20218;-74
2023/03/20 07:55:06;;;;;;;0.10;0.10;;;10.10;99.90;230.40;231737.00;;;;5059412;28;20198;-74
2023/03/20 07:57:34;;;;;;;0.10;0.10;;;10.10;99.90;230.40;231737.00;;;;5035987;28;20218;-75
2023/03/20 08:00:03;;;;;;;0.10;0.10;;;10.10;99.90;230.40;231737.00;;;;5042991;28;20737;-74
2023/03/20 08:02:38;;;;;;;0.10;0.10;;;10.20;99.90;230.40;231737.00;;;;5058274;28;20639;-74
2023/03/20 08:05:08;;;;;;;0.10;0.10;;;10.30;99.90;230.40;231737.00;;;;5047132;28;20278;-74
2023/03/20 08:07:37;;;;;;;0.10;0.10;;;10.40;99.90;230.40;231737.00;;;;5061924;28;20206;-74
2023/03/20 08:10:06;;;;;;;0.10;0.10;;;10.40;99.90;230.40;231737.00;;;;5058586;28;20368;-74
2023/03/20 08:12:34;;;;;;;0.10;0.10;;;10.50;99.90;230.40;231737.00;;;;5046618;28;20339;-74
2023/03/20 08:15:02;;;;;;;0.10;0.10;;;10.50;99.90;230.40;231737.00;;;;5055129;28;20222;-74
2023/03/20 08:17:30;;;;;;;0.10;0.10;;;10.50;99.90;230.40;231737.00;;;;5065479;28;20576;-74
2023/03/20 08:19:58;;;;;;;0.10;0.10;;;10.60;99.90;230.40;231737.00;;;;5058472;28;20677;-74
2023/03/20 08:22:27;;;;;;;0.10;0.10;;;10.60;99.90;230.40;231737.00;;;;5055874;28;20209;-73
2023/03/20 08:24:56;;;;;;;0.10;0.10;;;10.60;99.90;230.40;231737.00;;;;5035119;28;20627;-74
2023/03/20 08:27:24;;;;;;;0.10;0.10;;;10.60;99.90;230.40;231737.00;;;;5028891;28;20399;-75
2023/03/20 08:29:52;;;;;;;0.10;0.10;;;10.70;99.90;230.40;231737.00;;;;5063226;28;20194;-73
2023/03/20 08:32:20;;;;;;;0.10;0.10;;;10.70;99.90;230.40;231737.00;;;;5047988;28;20235;-74
2023/03/20 08:34:48;;;;;;;0.10;0.10;;;10.70;99.90;230.40;231737.00;;;;5071077;28;20193;-74
2023/03/20 08:37:16;;;;;;;0.10;0.10;;;10.70;99.90;230.40;231737.00;;;;5059694;28;20696;-74
2023/03/20 08:39:44;;;;;;;0.10;0.10;;;10.70;99.90;230.40;231737.00;;;;5046366;28;20202;-75
2023/03/20 08:42:14;;;;;;;0.10;0.10;;;10.70;99.90;230.40;231737.00;;;;5067692;28;20218;-74
2023/03/20 08:44:42;;;;;;;0.10;0.10;;;10.80;99.90;230.40;231737.00;;;;5068033;28;20595;-74
2023/03/20 08:47:10;;;;;;;0.10;0.10;;;10.80;99.90;230.40;231737.00;;;;5058090;28;20204;-74
2023/03/20 08:49:39;;;;;;;0.10;0.10;;;10.80;99.90;230.40;231737.00;;;;5063172;28;20255;-74
2023/03/20 08:52:07;;;;;;;0.10;0.10;;;10.90;99.90;230.40;231737.00;;;;5065619;28;20275;-74
2023/03/20 08:54:35;;;;;;;0.10;0.10;;;10.90;99.90;230.40;231737.00;;;;5069020;28;20202;-74
2023/03/20 08:57:03;;;;;;;0.10;0.10;;;10.90;99.90;230.40;231737.00;;;;5062472;28;20232;-74
2023/03/20 08:59:32;;;;;;;0.10;0.10;;;10.90;99.90;230.40;231737.00;;;;5063026;28;20212;-74
2023/03/20 09:02:00;;;;;;;0.10;0.10;;;11.00;99.90;230.40;231737.00;;;;5066661;28;20287;-74
2023/03/20 09:04:29;;;;;;;0.10;0.10;;;10.90;99.90;230.40;231737.00;;;;5059462;28;20198;-74
2023/03/20 09:06:57;;;;;;;0.10;0.10;;;11.00;99.90;230.40;231737.00;;;;5065927;28;20205;-74
2023/03/20 09:09:28;;;;;;;0.10;0.10;;;11.10;99.90;230.40;231737.00;;;;5060080;28;20603;-75
2023/03/20 09:11:56;;;;;;;0.10;0.10;;;11.20;99.90;230.40;231737.00;;;;5072955;28;20225;-74
2023/03/20 09:14:25;;;;;;;0.10;0.10;;;11.20;99.90;230.40;231737.00;;;;5062387;28;20724;-74
2023/03/20 09:16:54;;;;;;;0.10;0.10;;;11.20;99.90;230.40;231737.00;;;;5068302;28;20206;-75
2023/03/20 09:19:22;;;;;;;0.10;0.10;;;11.20;99.90;230.40;231737.00;;;;5063322;28;20202;-74
2023/03/20 09:21:50;;;;;;;0.10;0.10;;;11.20;99.90;230.40;231737.00;;;;5055869;28;20279;-74
2023/03/20 09:24:18;;;;;;;0.10;0.10;;;11.20;99.90;230.40;231737.00;;;;5063220;28;20665;-74
2023/03/20 09:26:46;;;;;;;0.10;0.10;;;11.20;99.90;230.40;231737.00;;;;5056304;28;20199;-74
2023/03/20 09:29:14;;;;;;;0.10;0.10;;;11.30;99.90;230.40;231737.00;;;;5063450;28;20315;-75
2023/03/20 09:31:42;;;;;;;0.10;0.10;;;11.30;99.90;230.40;231737.00;;;;5060332;28;20231;-75
2023/03/20 09:34:11;;;;;;;0.10;0.10;;;11.30;99.90;230.40;231737.00;;;;5045716;28;20278;-74
2023/03/20 09:36:39;;;;;;;0.10;0.10;;;11.40;99.90;230.40;231737.00;;;;5056416;28;20202;-75
2023/03/20 09:39:07;;;;;;;0.10;0.10;;;11.50;99.90;230.40;231737.00;;;;5061414;28;20218;-75
2023/03/20 09:41:36;;;;;;;0.10;0.10;;;11.50;99.90;230.40;231737.00;;;;5064089;28;20245;-74
2023/03/20 09:44:44;;;;;;;0.10;0.10;;;11.50;99.90;230.40;231737.00;;;;5067697;28;20196;-74
2023/03/20 09:47:23;;;;;;;0.10;0.10;;;11.60;99.90;230.40;231737.00;;;;5061249;28;20205;-74
2023/03/20 09:50:21;;;;;;;0.10;0.10;;;11.60;99.90;230.40;231737.00;;;;5065132;28;20252;-74
2023/03/20 09:52:59;;;;;;;0.10;0.10;;;11.60;99.90;230.40;231737.00;;;;5030467;28;20650;-74
2023/03/20 09:55:34;;;;;;;0.10;0.10;;;11.60;99.90;230.40;231737.00;;;;5054022;28;20205;-75
2023/03/20 09:58:12;;;;;;;0.10;0.10;;;11.60;99.90;230.40;231737.00;;;;5061760;28;20313;-74
2023/03/20 10:00:45;;;;;;;0.10;0.10;;;11.70;99.90;230.40;231737.00;;;;5060856;28;20605;-75
2023/03/20 10:03:22;;;;;;;0.10;0.10;;;11.70;99.90;230.40;231737.00;;;;5061922;28;20198;-74
2023/03/20 10:05:59;;;;;;;0.10;0.10;;;11.70;99.90;230.40;231737.00;;;;5052051;28;20611;-75
2023/03/20 10:08:31;;;;;;;0.00;0.00;;;11.80;99.90;230.40;231737.00;;;;5054389;28;20205;-75
2023/03/20 10:11:16;;;;;;;0.00;0.00;;;11.80;99.90;230.40;231737.00;;;;5055055;28;20222;-73
2023/03/20 10:14:13;;;;;;;0.10;0.10;;;11.70;99.90;230.40;231737.00;;;;5040614;28;20197;-74
2023/03/20 10:17:02;;;;;;;0.10;0.10;;;11.70;99.90;230.40;231737.00;;;;5062961;28;20204;-73
2023/03/20 10:19:36;;;;;;;0.10;0.10;;;11.70;99.90;230.40;231737.00;;;;5051027;28;20214;-73
2023/03/20 10:22:21;;;;;;;0.10;0.10;;;11.60;99.90;230.40;231737.00;;;;5053668;28;20218;-73
2023/03/20 10:24:55;;;;;;;0.00;0.00;;;11.60;99.90;230.40;231737.00;;;;5055609;28;20205;-74
2023/03/20 10:27:26;;;;;;;0.10;0.10;;;11.60;99.90;230.40;231737.00;;;;5050271;28;20242;-73
2023/03/20 10:30:23;;;;;;;0.10;0.10;;;11.50;99.90;230.40;231737.00;;;;5062824;28;20201;-74
2023/03/20 10:33:08;;;;;;;0.10;0.10;;;11.50;99.90;230.40;231737.00;;;;5062405;28;20271;-73
2023/03/20 10:35:47;;;;;;;0.10;0.10;;;11.40;99.90;230.40;231737.00;;;;5048883;28;20600;-74
2023/03/20 10:38:34;;;;;;;0.10;0.10;;;11.40;99.90;230.40;231737.00;;;;5070142;28;20575;-73
2023/03/20 10:41:09;;;;;;;0.10;0.10;;;11.40;99.90;230.40;231737.00;;;;5059913;28;20214;-74
2023/03/20 10:43:39;;;;;;;0.10;0.10;;;11.40;99.90;230.40;231737.00;;;;5064973;28;20205;-74
2023/03/20 10:46:14;;;;;;;0.10;0.10;;;11.40;99.90;230.40;231737.00;;;;5057474;28;20200;-74
2023/03/20 10:48:47;;;;;;;0.10;0.10;;;11.50;99.90;230.40;231737.00;;;;5063703;28;20208;-73
2023/03/20 10:51:19;;;;;;;0.10;0.10;;;11.50;99.90;230.40;231737.00;;;;5041208;28;20224;-73
2023/03/20 10:53:53;;;;;;;0.10;0.10;;;11.50;99.90;230.40;231737.00;;;;5057262;28;20300;-73
2023/03/20 10:56:32;;;;;;;0.00;0.00;;;11.50;99.90;230.40;231737.00;;;;5048981;28;20723;-73
2023/03/20 10:59:08;;;;;;;0.10;0.10;;;11.50;99.90;230.40;231737.00;;;;5063064;28;20221;-73
2023/03/20 11:01:36;;;;;;;0.10;0.10;;;11.50;99.90;230.40;231737.00;;;;5061349;28;20699;-74
2023/03/20 11:04:05;;;;;;;0.10;0.10;;;11.50;99.90;230.40;231737.00;;;;5061368;28;20734;-73
2023/03/20 11:06:42;;;;;;;0.10;0.10;;;11.40;99.90;230.40;231737.00;;;;5052254;28;20605;-73
2023/03/20 11:09:20;;;;;;;0.10;0.10;;;11.40;99.90;230.40;231737.00;;;;5064034;28;20224;-73
2023/03/20 11:11:52;;;;;;;0.05;0.05;;;11.50;99.90;230.40;231737.00;;;;5066930;28;20217;-73
2023/03/20 11:14:23;;;;;;;0.10;0.10;;;11.50;99.90;230.40;231737.00;;;;5050496;28;20665;-73
2023/03/20 11:16:53;;;;;;;0.10;0.10;;;11.60;99.90;230.40;231737.00;;;;5068129;28;20209;-73
2023/03/20 11:19:24;;;;;;;0.10;0.10;;;11.50;99.90;230.40;231737.00;;;;5051964;28;20272;-72